Time;durP1;ratioP1;P1;durP2;ratioP2;P2;SDS_P1;SDS_P2;PMS_P1;PMS_P2;Temp;Humidity;BMP_temperature;BMP_pressure;BME280_temperature;BME280_humidity;BME280_pressure;Samples;Min_cycle;Max_cycle;Signal;HPM_P1;HPM_P2
2023/06/01 00:01:46;;;;;;;22.90;21.90;;;23.00;55.00;;;;;;4994913;28;20442;-54
2023/06/01 00:04:14;;;;;;;23.77;22.47;;;23.00;55.20;;;;;;4994738;28;20482;-54
2023/06/01 00:06:41;;;;;;;23.27;22.07;;;23.00;55.20;;;;;;4994203;28;20451;-54
2023/06/01 00:09:08;;;;;;;23.17;21.93;;;23.00;55.20;;;;;;4994661;28;20860;-55
2023/06/01 00:11:36;;;;;;;23.30;22.27;;;23.00;55.20;;;;;;4994548;28;20505;-55
2023/06/01 00:14:04;;;;;;;23.83;22.73;;;23.00;55.40;;;;;;4994524;28;20981;-56
2023/06/01 00:16:31;;;;;;;23.20;22.10;;;23.00;55.60;;;;;;4994080;28;20530;-54
2023/06/01 00:19:00;;;;;;;23.73;22.67;;;22.90;55.60;;;;;;4994216;28;20471;-52
2023/06/01 00:21:28;;;;;;;22.90;21.80;;;23.00;55.80;;;;;;4994286;28;20906;-56
2023/06/01 00:23:55;;;;;;;23.07;21.97;;;23.00;55.80;;;;;;4994240;28;20494;-57
2023/06/01 00:26:22;;;;;;;23.70;22.63;;;22.90;55.80;;;;;;4993790;28;20550;-53
2023/06/01 00:28:50;;;;;;;23.63;22.60;;;22.90;55.90;;;;;;4994178;28;20997;-54
2023/06/01 00:31:17;;;;;;;23.37;22.27;;;22.80;56.10;;;;;;4994194;28;20550;-52
2023/06/01 00:33:44;;;;;;;23.57;22.30;;;22.80;56.20;;;;;;4993922;28;20945;-53
2023/06/01 00:36:11;;;;;;;23.43;22.30;;;22.80;56.40;;;;;;4993864;28;20454;-54
2023/06/01 00:38:38;;;;;;;23.80;22.70;;;22.80;56.50;;;;;;4993948;28;20909;-56
2023/06/01 00:41:05;;;;;;;24.50;23.10;;;22.80;56.50;;;;;;4993995;28;20478;-57
2023/06/01 00:43:32;;;;;;;23.10;21.90;;;22.80;56.60;;;;;;4993713;28;20474;-56
2023/06/01 00:46:00;;;;;;;23.37;22.13;;;22.80;56.80;;;;;;4993709;28;20483;-54
2023/06/01 00:48:27;;;;;;;24.23;22.97;;;22.80;56.90;;;;;;4993817;28;20495;-56
2023/06/01 00:50:54;;;;;;;23.67;22.50;;;22.80;57.10;;;;;;4993956;28;20478;-53
2023/06/01 00:53:21;;;;;;;23.27;22.27;;;22.70;57.20;;;;;;4993501;28;20863;-56
2023/06/01 00:55:49;;;;;;;23.97;22.83;;;22.70;57.50;;;;;;4993532;28;20478;-55
2023/06/01 00:58:16;;;;;;;23.33;22.20;;;22.70;57.70;;;;;;4993571;28;20503;-56
2023/06/01 01:00:43;;;;;;;23.70;22.40;;;22.70;57.80;;;;;;4993628;28;20483;-57
2023/06/01 01:03:13;;;;;;;23.97;22.87;;;22.70;58.10;;;;;;4993508;28;21012;-57
2023/06/01 01:05:41;;;;;;;23.00;22.00;;;22.70;58.10;;;;;;4993355;28;20463;-56
2023/06/01 01:08:14;;;;;;;24.80;23.40;;;22.60;58.20;;;;;;4993443;28;20541;-56
2023/06/01 01:10:47;;;;;;;23.20;22.20;;;22.60;58.50;;;;;;4993547;28;20457;-54
2023/06/01 01:13:18;;;;;;;23.70;22.60;;;22.60;58.50;;;;;;4993114;28;20585;-56
2023/06/01 01:15:57;;;;;;;24.67;23.37;;;22.60;58.70;;;;;;4993208;28;20478;-53
2023/06/01 01:18:34;;;;;;;24.47;23.10;;;22.60;59.00;;;;;;4993332;28;20502;-56
2023/06/01 01:21:21;;;;;;;23.63;22.53;;;22.50;59.00;;;;;;4993063;28;20481;-54
2023/06/01 01:24:15;;;;;;;23.93;22.70;;;22.50;59.10;;;;;;4993232;28;20439;-58
2023/06/01 01:26:57;;;;;;;23.93;22.73;;;22.50;59.60;;;;;;4993200;28;20474;-58
2023/06/01 01:29:29;;;;;;;24.33;23.13;;;22.40;59.60;;;;;;4993083;28;20550;-57
2023/06/01 01:31:57;;;;;;;24.27;23.17;;;22.40;59.90;;;;;;4992255;28;20573;-58
2023/06/01 01:34:28;;;;;;;23.80;22.60;;;22.40;59.90;;;;;;4991741;28;20481;-56
2023/06/01 01:36:55;;;;;;;23.70;22.50;;;22.40;60.20;;;;;;4992855;28;20513;-56
2023/06/01 01:39:22;;;;;;;24.20;23.03;;;22.40;60.50;;;;;;4992798;28;20533;-56
2023/06/01 01:41:49;;;;;;;23.87;22.77;;;22.40;60.70;;;;;;4992623;28;20534;-55
2023/06/01 01:44:16;;;;;;;24.10;22.80;;;22.30;60.70;;;;;;4992840;28;20483;-53
2023/06/01 01:46:53;;;;;;;24.60;23.30;;;22.30;61.20;;;;;;4992674;28;20487;-56
2023/06/01 01:49:25;;;;;;;23.80;22.70;;;22.40;60.90;;;;;;4992764;28;20494;-55
2023/06/01 01:51:58;;;;;;;24.70;23.23;;;22.30;61.20;;;;;;4992195;28;20494;-57
2023/06/01 01:54:26;;;;;;;23.90;22.70;;;22.30;61.50;;;;;;4992756;28;20855;-57
2023/06/01 01:56:58;;;;;;;24.10;23.00;;;22.30;61.30;;;;;;4992458;28;20891;-58
2023/06/01 01:59:26;;;;;;;24.10;23.00;;;22.30;61.50;;;;;;4992651;28;20502;-57
2023/06/01 02:01:55;;;;;;;24.03;22.83;;;22.30;61.60;;;;;;4992321;28;20486;-57
2023/06/01 02:04:22;;;;;;;23.83;22.73;;;22.30;61.50;;;;;;4992543;28;20450;-58
2023/06/01 02:06:49;;;;;;;24.10;23.00;;;22.30;61.60;;;;;;4992336;28;20966;-58
2023/06/01 02:09:16;;;;;;;24.70;23.40;;;22.30;62.00;;;;;;4991852;28;20545;-55
2023/06/01 02:11:43;;;;;;;24.00;22.70;;;22.30;62.20;;;;;;4992008;28;20871;-58
2023/06/01 02:14:10;;;;;;;24.60;23.10;;;22.20;62.30;;;;;;4992272;28;20494;-53
2023/06/01 02:16:37;;;;;;;24.83;23.63;;;22.20;62.60;;;;;;4992240;28;20478;-55
2023/06/01 02:19:05;;;;;;;24.40;23.10;;;22.20;62.60;;;;;;4992040;28;20909;-56
2023/06/01 02:21:32;;;;;;;24.40;23.20;;;22.20;63.00;;;;;;4992216;28;20455;-58
2023/06/01 02:24:04;;;;;;;25.60;24.30;;;22.20;62.90;;;;;;4992265;28;20474;-57
2023/06/01 02:26:31;;;;;;;24.60;23.40;;;22.20;62.90;;;;;;4992087;28;20968;-54
2023/06/01 02:28:58;;;;;;;25.60;24.30;;;22.20;63.10;;;;;;4991886;28;20886;-57
2023/06/01 02:31:25;;;;;;;24.77;23.47;;;22.10;63.10;;;;;;4992239;28;20855;-54
2023/06/01 02:33:52;;;;;;;25.10;23.90;;;22.10;63.20;;;;;;4992002;28;20517;-56
2023/06/01 02:36:21;;;;;;;25.30;24.00;;;22.10;63.50;;;;;;4992158;28;20451;-56
2023/06/01 02:38:48;;;;;;;26.00;24.20;;;22.10;63.30;;;;;;5038448;22;20871;-67
2023/06/01 02:41:15;;;;;;;25.23;24.13;;;22.10;63.20;;;;;;5025365;28;20453;-67
2023/06/01 02:43:42;;;;;;;25.03;23.73;;;22.10;63.50;;;;;;5031340;28;20479;-66
2023/06/01 02:46:09;;;;;;;25.03;23.67;;;22.10;63.50;;;;;;5031179;28;20476;-66
2023/06/01 02:48:36;;;;;;;26.27;25.00;;;22.10;63.50;;;;;;5039857;28;20495;-63
2023/06/01 02:51:03;;;;;;;25.83;24.53;;;22.00;63.60;;;;;;5051284;28;20979;-66
2023/06/01 02:53:31;;;;;;;26.57;24.90;;;22.00;63.70;;;;;;5051081;28;20563;-66
2023/06/01 02:55:58;;;;;;;26.80;25.40;;;22.00;63.90;;;;;;5051110;28;20936;-66
2023/06/01 02:58:25;;;;;;;25.80;24.30;;;21.90;63.90;;;;;;5050919;28;20472;-66
2023/06/01 03:00:52;;;;;;;25.23;23.93;;;21.90;63.90;;;;;;5051115;28;20472;-67
2023/06/01 03:03:18;;;;;;;26.10;24.50;;;21.90;64.00;;;;;;5050986;28;20475;-67
2023/06/01 03:05:47;;;;;;;25.70;24.50;;;21.90;63.80;;;;;;5050913;28;20476;-66
2023/06/01 03:08:16;;;;;;;26.00;24.80;;;21.80;64.00;;;;;;5050704;28;20468;-67
2023/06/01 03:10:44;;;;;;;26.80;25.50;;;21.80;63.80;;;;;;5050919;28;20452;-66
2023/06/01 03:13:11;;;;;;;27.10;25.60;;;21.80;63.90;;;;;;5050988;28;20480;-66
2023/06/01 03:15:38;;;;;;;26.47;25.07;;;21.80;64.10;;;;;;5050829;28;20476;-63
2023/06/01 03:18:06;;;;;;;25.77;24.37;;;21.70;64.30;;;;;;5050540;28;20503;-62
2023/06/01 03:20:33;;;;;;;27.40;26.00;;;21.70;64.30;;;;;;5051181;28;21011;-64
2023/06/01 03:23:00;;;;;;;28.07;26.17;;;21.70;64.10;;;;;;5054753;28;20472;-63
2023/06/01 03:25:28;;;;;;;27.63;26.23;;;21.70;64.40;;;;;;5054629;28;20450;-64
2023/06/01 03:27:56;;;;;;;26.43;25.00;;;21.70;64.10;;;;;;5054105;28;20464;-62
2023/06/01 03:30:23;;;;;;;26.40;25.10;;;21.70;64.10;;;;;;5054689;28;20440;-63
2023/06/01 03:32:50;;;;;;;27.63;25.73;;;21.70;64.30;;;;;;5054405;28;20502;-64
2023/06/01 03:35:17;;;;;;;26.30;24.93;;;21.60;64.40;;;;;;5054503;28;20471;-64
2023/06/01 03:37:46;;;;;;;28.07;26.57;;;21.60;64.20;;;;;;5053576;28;20479;-65
2023/06/01 03:40:13;;;;;;;26.83;25.30;;;21.60;64.10;;;;;;5054455;28;20463;-64
2023/06/01 03:42:41;;;;;;;26.43;24.77;;;21.60;64.00;;;;;;5054214;28;20475;-64
2023/06/01 03:45:11;;;;;;;28.73;27.00;;;21.60;64.30;;;;;;5054307;28;20476;-64
2023/06/01 03:47:38;;;;;;;28.13;26.40;;;21.60;64.20;;;;;;5053793;28;20974;-62
2023/06/01 03:50:07;;;;;;;26.73;25.10;;;21.60;64.30;;;;;;5054643;28;20447;-63
2023/06/01 03:52:34;;;;;;;27.43;25.83;;;21.60;64.10;;;;;;5054084;28;20539;-61
2023/06/01 03:55:04;;;;;;;27.33;25.80;;;21.60;64.10;;;;;;5054094;28;20478;-61
2023/06/01 03:57:31;;;;;;;28.70;26.90;;;21.50;64.30;;;;;;5053559;28;20480;-63
2023/06/01 03:59:58;;;;;;;29.00;27.40;;;21.50;64.30;;;;;;5054007;28;20440;-63
2023/06/01 04:02:28;;;;;;;31.00;29.20;;;21.50;64.40;;;;;;5053652;28;20483;-63
2023/06/01 04:04:55;;;;;;;29.13;27.63;;;21.50;64.40;;;;;;5053836;28;20447;-63
2023/06/01 04:07:22;;;;;;;29.83;28.13;;;21.40;64.40;;;;;;5053529;28;20986;-63
2023/06/01 04:09:49;;;;;;;29.83;28.03;;;21.40;64.60;;;;;;5053933;28;20503;-62
2023/06/01 04:12:16;;;;;;;30.30;28.60;;;21.40;64.60;;;;;;5053696;28;20487;-63
2023/06/01 04:14:43;;;;;;;29.87;27.87;;;21.40;64.40;;;;;;5053742;28;20570;-63
2023/06/01 04:17:10;;;;;;;30.73;28.97;;;21.50;65.00;;;;;;5053990;28;20478;-63
2023/06/01 04:19:39;;;;;;;31.40;29.13;;;21.50;66.00;;;;;;5053291;28;20492;-63
2023/06/01 04:22:06;;;;;;;32.33;30.37;;;21.50;67.10;;;;;;5053548;28;20954;-64
2023/06/01 04:24:33;;;;;;;34.37;32.00;;;21.60;68.80;;;;;;5053518;28;20494;-61
2023/06/01 04:27:00;;;;;;;33.07;30.90;;;21.60;75.00;;;;;;5053400;28;20476;-63
2023/06/01 04:29:27;;;;;;;32.63;30.53;;;21.50;76.60;;;;;;5052922;28;21053;-62
2023/06/01 04:31:54;;;;;;;33.70;31.20;;;21.50;75.50;;;;;;5050899;28;20880;-53
2023/06/01 04:34:23;;;;;;;30.20;28.40;;;21.50;74.50;;;;;;5053195;28;20471;-56
2023/06/01 04:36:51;;;;;;;31.87;29.90;;;21.50;73.30;;;;;;5053166;28;20498;-59
2023/06/01 04:39:18;;;;;;;32.37;30.20;;;21.60;72.50;;;;;;5053075;28;20888;-54
2023/06/01 04:41:45;;;;;;;30.83;28.90;;;21.60;71.40;;;;;;5053159;28;20487;-58
2023/06/01 04:44:12;;;;;;;31.07;28.83;;;21.70;70.60;;;;;;5053247;28;20459;-62
2023/06/01 04:46:40;;;;;;;30.60;28.47;;;21.70;70.90;;;;;;5052948;28;20957;-59
2023/06/01 04:49:07;;;;;;;30.70;28.83;;;21.70;69.30;;;;;;5052982;28;20545;-59
2023/06/01 04:51:36;;;;;;;30.47;28.73;;;21.70;68.70;;;;;;5053066;28;20483;-62
2023/06/01 04:54:04;;;;;;;29.83;28.03;;;21.70;68.40;;;;;;5052798;28;20483;-58
2023/06/01 04:56:32;;;;;;;30.50;28.70;;;21.80;69.10;;;;;;5052858;28;20444;-61
2023/06/01 04:58:58;;;;;;;31.30;29.70;;;21.80;68.00;;;;;;5052772;28;20555;-59
2023/06/01 05:01:29;;;;;;;29.77;28.10;;;21.80;67.50;;;;;;5052743;28;20476;-65
2023/06/01 05:03:56;;;;;;;31.33;29.70;;;21.80;66.90;;;;;;5052750;28;20448;-64
2023/06/01 05:06:24;;;;;;;30.90;29.10;;;21.80;66.60;;;;;;5052691;28;20734;-63
2023/06/01 05:08:51;;;;;;;30.87;29.17;;;21.80;66.60;;;;;;5052510;28;20472;-62
2023/06/01 05:11:21;;;;;;;30.30;28.80;;;21.80;66.50;;;;;;5052655;28;20527;-62
2023/06/01 05:13:48;;;;;;;31.13;29.50;;;21.80;66.40;;;;;;5052544;28;20480;-61
2023/06/01 05:16:15;;;;;;;32.07;30.43;;;21.80;66.20;;;;;;5052336;28;20476;-64
2023/06/01 05:18:42;;;;;;;31.20;29.60;;;21.80;66.10;;;;;;5052444;28;20499;-64
2023/06/01 05:21:09;;;;;;;31.17;29.60;;;21.90;66.00;;;;;;5052600;28;20450;-64
2023/06/01 05:23:35;;;;;;;30.23;28.63;;;21.80;65.80;;;;;;5052333;28;20483;-63
2023/06/01 05:26:02;;;;;;;31.40;29.73;;;21.90;65.60;;;;;;5052185;28;20479;-64
2023/06/01 05:28:32;;;;;;;32.10;29.93;;;21.80;65.40;;;;;;5052345;28;20488;-62
2023/06/01 05:30:59;;;;;;;30.53;28.63;;;21.90;65.60;;;;;;5052312;28;20942;-64
2023/06/01 05:33:26;;;;;;;32.87;30.60;;;21.80;65.20;;;;;;5052087;28;21003;-64
2023/06/01 05:35:53;;;;;;;30.40;28.70;;;21.80;65.20;;;;;;5052082;28;20449;-64
2023/06/01 05:38:20;;;;;;;30.40;28.87;;;21.90;64.90;;;;;;5051885;28;20478;-65
2023/06/01 05:40:47;;;;;;;29.60;28.10;;;21.90;64.80;;;;;;5052147;28;20440;-64
2023/06/01 05:43:15;;;;;;;32.23;30.43;;;21.90;64.90;;;;;;5051266;28;20483;-65
2023/06/01 05:45:44;;;;;;;31.60;30.10;;;21.90;64.80;;;;;;5051934;28;20865;-61
2023/06/01 05:48:13;;;;;;;31.17;29.77;;;21.90;64.80;;;;;;5051699;28;20491;-64
2023/06/01 05:50:40;;;;;;;30.30;28.80;;;21.90;64.50;;;;;;5052199;28;20480;-60
2023/06/01 05:53:08;;;;;;;30.93;29.43;;;21.90;64.50;;;;;;5051765;28;20489;-62
2023/06/01 05:55:34;;;;;;;31.13;29.33;;;21.90;64.50;;;;;;5051760;28;20492;-64
2023/06/01 05:58:01;;;;;;;32.40;30.80;;;21.90;64.00;;;;;;5051494;28;20496;-62
2023/06/01 06:00:28;;;;;;;32.97;31.47;;;21.90;63.70;;;;;;5051782;28;20491;-63
2023/06/01 06:02:56;;;;;;;32.97;31.20;;;21.90;63.50;;;;;;5051638;28;20479;-62
2023/06/01 06:05:23;;;;;;;32.80;31.20;;;21.90;63.50;;;;;;5051731;28;20952;-64
2023/06/01 06:07:50;;;;;;;32.70;31.10;;;21.90;63.60;;;;;;5051535;28;20447;-62
2023/06/01 06:10:17;;;;;;;32.30;30.50;;;21.90;63.60;;;;;;5051653;28;20481;-62
2023/06/01 06:12:44;;;;;;;32.00;30.20;;;21.90;63.50;;;;;;5051480;28;20518;-61
2023/06/01 06:15:11;;;;;;;32.33;30.73;;;21.90;63.50;;;;;;5051439;28;20515;-59
2023/06/01 06:17:38;;;;;;;31.93;30.43;;;21.90;63.70;;;;;;5051402;28;20574;-60
2023/06/01 06:20:08;;;;;;;32.83;31.13;;;21.90;63.40;;;;;;5051357;28;20483;-59
2023/06/01 06:22:35;;;;;;;31.63;30.23;;;21.90;63.40;;;;;;5051597;28;20498;-64
2023/06/01 06:25:02;;;;;;;31.97;30.47;;;21.90;63.20;;;;;;5051307;28;20527;-63
2023/06/01 06:27:29;;;;;;;35.40;33.50;;;21.90;63.00;;;;;;5051178;28;20457;-65
2023/06/01 06:29:56;;;;;;;34.97;33.07;;;22.00;63.00;;;;;;5051378;28;20488;-64
2023/06/01 06:32:23;;;;;;;35.17;33.40;;;21.90;62.50;;;;;;5051371;28;20487;-65
2023/06/01 06:34:50;;;;;;;36.83;34.93;;;22.00;62.00;;;;;;5051238;28;20510;-63
2023/06/01 06:37:18;;;;;;;35.40;33.57;;;21.90;61.60;;;;;;5051153;28;20483;-63
2023/06/01 06:39:45;;;;;;;33.33;31.73;;;21.90;61.80;;;;;;5051141;28;20472;-58
2023/06/01 06:42:12;;;;;;;35.37;33.50;;;21.90;61.80;;;;;;5051173;28;20479;-62
2023/06/01 06:44:39;;;;;;;33.97;32.27;;;21.90;61.70;;;;;;5051281;28;20472;-64
2023/06/01 06:47:06;;;;;;;33.80;32.30;;;21.90;61.70;;;;;;5051029;28;20476;-61
2023/06/01 06:49:33;;;;;;;33.57;31.77;;;21.90;61.60;;;;;;5051064;28;20901;-60
2023/06/01 06:52:00;;;;;;;33.63;31.77;;;21.90;61.50;;;;;;5051176;28;20476;-60
2023/06/01 06:54:28;;;;;;;32.93;31.30;;;21.90;61.50;;;;;;5051079;28;21048;-60
2023/06/01 06:56:55;;;;;;;34.33;32.63;;;21.90;61.30;;;;;;5054915;28;20497;-62
2023/06/01 06:59:22;;;;;;;32.90;31.23;;;21.90;61.20;;;;;;5055106;28;20502;-63
2023/06/01 07:01:50;;;;;;;32.93;31.23;;;21.90;61.00;;;;;;5055169;28;20471;-63
2023/06/01 07:04:17;;;;;;;34.73;33.03;;;21.90;60.60;;;;;;5054864;28;20440;-64
2023/06/01 07:06:44;;;;;;;35.23;33.23;;;21.90;60.10;;;;;;5054869;28;20985;-63
2023/06/01 07:09:11;;;;;;;35.27;33.47;;;21.80;59.90;;;;;;5054842;28;20474;-62
2023/06/01 07:11:44;;;;;;;36.47;34.53;;;21.80;60.70;;;;;;5054846;28;20480;-64
2023/06/01 07:14:11;;;;;;;36.83;34.93;;;21.80;59.90;;;;;;5054775;28;20484;-62
2023/06/01 07:16:38;;;;;;;37.20;35.30;;;21.70;59.50;;;;;;5054718;28;20451;-59
2023/06/01 07:19:05;;;;;;;36.63;34.70;;;21.70;59.40;;;;;;5054709;28;20491;-61
2023/06/01 07:21:32;;;;;;;36.03;34.00;;;21.70;59.30;;;;;;5054731;28;20807;-55
2023/06/01 07:23:59;;;;;;;35.83;33.93;;;21.70;59.20;;;;;;5054644;28;20446;-58
2023/06/01 07:26:28;;;;;;;37.87;35.67;;;21.70;59.10;;;;;;5054542;28;20487;-57
2023/06/01 07:28:57;;;;;;;38.77;36.43;;;21.70;59.00;;;;;;5054507;28;20983;-58
2023/06/01 07:31:24;;;;;;;36.63;34.80;;;21.70;58.90;;;;;;5054548;28;20455;-64
2023/06/01 07:33:52;;;;;;;35.70;33.80;;;21.60;58.80;;;;;;5054562;28;20566;-59
2023/06/01 07:36:20;;;;;;;36.37;34.37;;;21.60;58.70;;;;;;5054262;28;20440;-62
2023/06/01 07:38:47;;;;;;;35.90;34.00;;;21.60;58.60;;;;;;5054229;28;20478;-62
2023/06/01 07:41:13;;;;;;;37.27;35.27;;;21.70;58.80;;;;;;5054009;28;20475;-60
2023/06/01 07:43:40;;;;;;;36.73;34.70;;;21.70;58.80;;;;;;5054142;28;20483;-59
2023/06/01 07:46:08;;;;;;;37.17;35.10;;;21.70;58.80;;;;;;5054168;28;20471;-64
2023/06/01 07:48:38;;;;;;;35.77;33.87;;;21.70;58.70;;;;;;5054175;28;20522;-65
2023/06/01 07:51:06;;;;;;;36.50;34.60;;;21.80;58.80;;;;;;5054211;28;20448;-65
2023/06/01 07:53:33;;;;;;;34.90;33.10;;;21.80;58.90;;;;;;5053971;28;20440;-65
2023/06/01 07:56:01;;;;;;;35.33;33.43;;;21.80;58.90;;;;;;5054017;28;20570;-65
2023/06/01 07:58:28;;;;;;;35.07;33.27;;;21.80;58.80;;;;;;5053780;28;20487;-65
2023/06/01 08:00:55;;;;;;;34.40;32.60;;;21.80;59.00;;;;;;5053877;28;20456;-65
2023/06/01 08:03:25;;;;;;;36.17;33.93;;;21.80;58.90;;;;;;5053984;28;20459;-63
2023/06/01 08:05:54;;;;;;;35.83;33.93;;;21.80;58.70;;;;;;5053767;28;20928;-64
2023/06/01 08:08:21;;;;;;;35.40;33.47;;;21.80;58.80;;;;;;5052887;28;20523;-62
2023/06/01 08:10:48;;;;;;;35.60;33.50;;;21.80;58.80;;;;;;5053755;28;20440;-62
2023/06/01 08:13:15;;;;;;;35.80;34.10;;;21.80;58.80;;;;;;5053720;28;20483;-65
2023/06/01 08:15:42;;;;;;;36.40;34.50;;;21.80;58.80;;;;;;5053623;28;20566;-63
2023/06/01 08:18:09;;;;;;;36.17;34.17;;;21.80;58.70;;;;;;5053443;28;20555;-64
2023/06/01 08:20:37;;;;;;;37.83;35.70;;;21.80;58.60;;;;;;5053802;28;20444;-61
2023/06/01 08:23:04;;;;;;;36.20;34.10;;;21.80;58.70;;;;;;5053511;28;20476;-64
2023/06/01 08:25:31;;;;;;;37.50;35.50;;;21.80;58.70;;;;;;5053428;28;20447;-63
2023/06/01 08:27:58;;;;;;;34.10;32.40;;;21.80;58.70;;;;;;5053300;28;20510;-61
2023/06/01 08:30:27;;;;;;;35.67;33.77;;;21.80;58.70;;;;;;5053389;28;20444;-63
2023/06/01 08:32:54;;;;;;;36.20;34.30;;;21.80;58.80;;;;;;5053384;28;20923;-65
2023/06/01 08:35:20;;;;;;;36.87;34.53;;;21.80;58.40;;;;;;5053355;28;20916;-63
2023/06/01 08:37:49;;;;;;;36.50;34.47;;;21.80;58.20;;;;;;5052962;28;20475;-60
2023/06/01 08:40:17;;;;;;;37.90;35.80;;;21.90;58.20;;;;;;5105548;22;20514;-54
2023/06/01 08:42:56;;;;;;;36.53;34.63;;;21.80;58.20;;;;;;5091760;28;20519;-54
2023/06/01 08:45:24;;;;;;;36.70;34.43;;;21.90;58.20;;;;;;5093492;28;20575;-53
2023/06/01 08:47:54;;;;;;;37.30;35.30;;;21.90;58.20;;;;;;5093380;28;20481;-56
2023/06/01 08:50:22;;;;;;;38.30;36.10;;;21.90;58.30;;;;;;5093551;28;20459;-58
2023/06/01 08:52:53;;;;;;;38.33;36.00;;;21.80;58.20;;;;;;5093334;28;20449;-55
2023/06/01 08:55:20;;;;;;;37.30;35.30;;;21.90;58.30;;;;;;5093244;28;20474;-54
2023/06/01 08:57:47;;;;;;;37.20;35.20;;;21.80;58.30;;;;;;5093188;28;20478;-57
2023/06/01 09:00:15;;;;;;;37.53;35.37;;;21.90;58.30;;;;;;5093209;28;20498;-56
2023/06/01 09:02:42;;;;;;;37.47;35.30;;;21.80;57.90;;;;;;5093077;28;20948;-57
2023/06/01 09:05:11;;;;;;;38.90;36.60;;;21.90;57.90;;;;;;5093088;28;20486;-54
2023/06/01 09:07:38;;;;;;;39.00;36.70;;;21.80;57.70;;;;;;5092928;28;20480;-57
2023/06/01 09:10:08;;;;;;;39.00;36.70;;;21.80;57.60;;;;;;5092876;28;20545;-56
2023/06/01 09:12:35;;;;;;;37.80;35.57;;;21.80;57.40;;;;;;5092964;28;20486;-56
2023/06/01 09:15:10;;;;;;;39.90;37.80;;;21.80;57.50;;;;;;5092745;28;20888;-54
2023/06/01 09:17:38;;;;;;;38.07;35.87;;;21.80;57.60;;;;;;5092621;28;20480;-56
2023/06/01 09:20:06;;;;;;;38.80;36.60;;;21.80;57.60;;;;;;5092710;28;20901;-55
2023/06/01 09:22:43;;;;;;;39.33;36.97;;;21.80;57.70;;;;;;5092775;28;20458;-58
2023/06/01 09:25:13;;;;;;;39.40;37.30;;;21.80;57.70;;;;;;5092667;28;20445;-54
2023/06/01 09:27:45;;;;;;;40.57;38.10;;;21.80;57.60;;;;;;5092505;28;20525;-55
2023/06/01 09:30:13;;;;;;;37.20;35.03;;;21.80;57.60;;;;;;5092607;28;20502;-54
2023/06/01 09:32:41;;;;;;;40.90;38.43;;;21.90;57.70;;;;;;5092380;28;20474;-59
2023/06/01 09:35:09;;;;;;;39.53;37.00;;;21.80;57.60;;;;;;5092492;28;20921;-57
2023/06/01 09:37:37;;;;;;;41.17;38.40;;;21.80;57.50;;;;;;5092245;28;20568;-53
2023/06/01 09:40:19;;;;;;;39.80;37.17;;;21.90;57.60;;;;;;5092241;28;20474;-57
2023/06/01 09:42:49;;;;;;;38.60;36.30;;;21.90;57.70;;;;;;5092426;28;20473;-53
2023/06/01 09:45:19;;;;;;;39.63;37.13;;;21.90;57.70;;;;;;5092375;28;20857;-54
2023/06/01 09:47:46;;;;;;;42.07;39.17;;;21.90;57.70;;;;;;5092104;28;20474;-58
2023/06/01 09:50:32;;;;;;;41.40;38.70;;;21.90;57.70;;;;;;5092339;28;20614;-55
2023/06/01 09:52:59;;;;;;;41.57;38.80;;;21.90;57.60;;;;;;5092142;28;20634;-55
2023/06/01 09:55:28;;;;;;;40.60;38.03;;;21.90;57.60;;;;;;5091977;28;20482;-56
2023/06/01 09:58:18;;;;;;;42.57;39.87;;;21.90;57.60;;;;;;5091995;28;20571;-56
2023/06/01 10:00:47;;;;;;;41.60;38.93;;;21.90;57.70;;;;;;5092076;28;20438;-55
2023/06/01 10:03:15;;;;;;;40.90;38.23;;;21.90;57.70;;;;;;5092048;28;20486;-57
2023/06/01 10:05:42;;;;;;;40.90;38.30;;;21.90;57.60;;;;;;5091894;28;20452;-56
2023/06/01 10:08:11;;;;;;;41.10;38.50;;;21.90;57.60;;;;;;5091634;28;20477;-57
2023/06/01 10:10:40;;;;;;;42.93;40.20;;;22.00;57.50;;;;;;5091812;28;20478;-58
2023/06/01 10:13:07;;;;;;;41.60;38.90;;;22.00;57.60;;;;;;5091804;28;20450;-53
2023/06/01 10:15:35;;;;;;;41.50;38.47;;;21.90;57.50;;;;;;5091662;28;20577;-56
2023/06/01 10:18:03;;;;;;;40.83;38.07;;;21.90;57.30;;;;;;5091644;28;20463;-55
2023/06/01 10:20:33;;;;;;;41.60;38.80;;;22.00;57.30;;;;;;5091787;28;20782;-56
2023/06/01 10:23:00;;;;;;;39.97;37.40;;;22.00;57.20;;;;;;5091521;28;20474;-56
2023/06/01 10:25:31;;;;;;;40.47;37.80;;;22.00;57.10;;;;;;5091736;28;20478;-53
2023/06/01 10:28:03;;;;;;;42.83;39.93;;;22.00;57.00;;;;;;5091509;28;20442;-56
2023/06/01 10:30:30;;;;;;;40.53;37.90;;;22.00;56.90;;;;;;5091179;28;20442;-58
2023/06/01 10:32:57;;;;;;;41.37;38.37;;;22.00;56.90;;;;;;5091572;28;21019;-57
2023/06/01 10:36:04;;;;;;;41.13;38.30;;;22.00;57.00;;;;;;5091549;28;20526;-58
2023/06/01 10:38:30;;;;;;;41.70;39.00;;;22.00;57.00;;;;;;5091265;28;20571;-59
2023/06/01 10:41:27;;;;;;;40.33;37.73;;;22.00;56.90;;;;;;5091696;28;20868;-58
2023/06/01 10:43:56;;;;;;;41.80;39.20;;;22.00;56.90;;;;;;5091654;28;20461;-55
2023/06/01 10:46:36;;;;;;;39.93;37.27;;;22.00;57.00;;;;;;5091516;28;20455;-58
2023/06/01 10:49:05;;;;;;;39.80;37.10;;;22.00;56.80;;;;;;5091385;28;20465;-54
2023/06/01 10:51:32;;;;;;;36.93;34.50;;;22.00;56.60;;;;;;5091521;28;20443;-54
2023/06/01 10:54:27;;;;;;;37.87;35.57;;;22.00;56.40;;;;;;5091398;28;20504;-57
2023/06/01 10:57:23;;;;;;;36.07;33.60;;;22.00;56.10;;;;;;5091312;28;20823;-53
2023/06/01 11:00:20;;;;;;;37.17;34.77;;;22.00;56.00;;;;;;5091602;28;20474;-53
2023/06/01 11:02:52;;;;;;;36.07;33.73;;;22.00;55.90;;;;;;5091284;28;20500;-55
2023/06/01 11:05:51;;;;;;;35.67;33.47;;;22.00;55.80;;;;;;5091359;28;20484;-55
2023/06/01 11:08:55;;;;;;;34.00;31.90;;;22.00;55.90;;;;;;5028588;28;20445;-56
2023/06/01 11:11:22;;;;;;;35.90;33.53;;;22.00;55.90;;;;;;5091349;28;20470;-55
2023/06/01 11:14:13;;;;;;;33.60;31.70;;;22.00;55.80;;;;;;5091230;28;20452;-56
2023/06/01 11:16:42;;;;;;;32.80;31.00;;;22.00;55.70;;;;;;5091037;28;20599;-57
2023/06/01 11:19:10;;;;;;;34.30;32.30;;;22.00;55.80;;;;;;5091129;28;20498;-54
2023/06/01 11:21:40;;;;;;;32.27;30.47;;;22.00;55.90;;;;;;5091049;28;20457;-56
2023/06/01 11:24:10;;;;;;;33.80;31.90;;;22.00;55.80;;;;;;5091036;28;20447;-55
2023/06/01 11:26:40;;;;;;;32.30;30.60;;;22.10;56.00;;;;;;5090918;28;20478;-56
2023/06/01 11:29:13;;;;;;;30.97;29.37;;;22.10;56.00;;;;;;5091064;28;20557;-56
2023/06/01 11:31:44;;;;;;;31.37;29.60;;;22.10;56.10;;;;;;5091012;28;20497;-57
2023/06/01 11:34:12;;;;;;;32.30;30.40;;;22.10;56.10;;;;;;5091006;28;20478;-53
2023/06/01 11:36:42;;;;;;;34.00;32.03;;;22.10;56.20;;;;;;5090867;28;20564;-54
2023/06/01 11:39:21;;;;;;;33.13;31.23;;;22.10;56.10;;;;;;5090881;28;20474;-54
2023/06/01 11:41:52;;;;;;;33.70;31.93;;;22.10;55.80;;;;;;5091728;28;20534;-57
2023/06/01 11:44:19;;;;;;;32.13;30.33;;;22.10;55.70;;;;;;5094784;28;20504;-58
2023/06/01 11:46:58;;;;;;;32.23;30.10;;;22.10;55.50;;;;;;5094411;28;20517;-55
2023/06/01 11:49:26;;;;;;;32.47;30.67;;;22.10;55.50;;;;;;5094718;28;21016;-54
2023/06/01 11:51:53;;;;;;;31.47;29.67;;;22.10;55.30;;;;;;5095090;28;20478;-55
2023/06/01 11:54:28;;;;;;;31.80;30.20;;;22.10;55.40;;;;;;5095161;28;20909;-53
2023/06/01 11:56:56;;;;;;;30.30;28.70;;;22.10;55.20;;;;;;5094988;28;20484;-54
2023/06/01 11:59:24;;;;;;;33.20;31.30;;;22.10;55.20;;;;;;5095649;28;20527;-53
2023/06/01 12:01:54;;;;;;;32.47;30.60;;;22.10;55.10;;;;;;5094687;28;20446;-54
2023/06/01 12:04:25;;;;;;;30.70;29.20;;;22.10;55.10;;;;;;5094414;28;20470;-57
2023/06/01 12:06:52;;;;;;;32.70;30.70;;;22.20;55.20;;;;;;5094226;28;20481;-54
2023/06/01 12:09:20;;;;;;;31.70;30.00;;;22.20;55.80;;;;;;5094513;28;20465;-53
2023/06/01 12:11:47;;;;;;;33.10;31.10;;;22.20;55.20;;;;;;5094213;28;20489;-57
2023/06/01 12:14:16;;;;;;;31.50;29.90;;;22.20;55.00;;;;;;5094172;28;20449;-55
2023/06/01 12:16:58;;;;;;;32.10;30.30;;;22.20;55.10;;;;;;5093853;28;20489;-54
2023/06/01 12:19:28;;;;;;;33.10;31.00;;;22.20;55.00;;;;;;5094045;28;20831;-58
2023/06/01 12:21:57;;;;;;;31.70;29.70;;;22.20;54.80;;;;;;5093987;28;20817;-55
2023/06/01 12:24:29;;;;;;;32.33;30.70;;;22.20;54.70;;;;;;5093900;28;20481;-55
2023/06/01 12:26:56;;;;;;;34.43;32.53;;;22.20;54.70;;;;;;5093724;28;20438;-57
2023/06/01 12:29:44;;;;;;;32.27;30.47;;;22.30;54.90;;;;;;5093724;28;20551;-54
2023/06/01 12:32:13;;;;;;;32.97;31.07;;;22.30;54.90;;;;;;5089581;28;20476;-51
2023/06/01 12:34:47;;;;;;;32.00;30.30;;;22.30;54.90;;;;;;5093820;28;20952;-52
2023/06/01 12:37:18;;;;;;;33.33;31.13;;;22.30;54.90;;;;;;5093598;28;20478;-53
2023/06/01 12:39:52;;;;;;;32.43;30.63;;;22.30;54.80;;;;;;5093688;28;20506;-54